createdAt,value
2022-08-17T00:01:14.194Z,99.90
2022-08-17T00:06:28.137Z,99.90
2022-08-17T00:11:32.874Z,99.90
2022-08-17T00:16:51.916Z,99.90
2022-08-17T00:22:33.039Z,99.90
2022-08-17T00:27:24.538Z,99.90
2022-08-17T00:33:12.019Z,99.90
2022-08-17T00:37:48.813Z,99.90
2022-08-17T00:42:50.892Z,99.90
2022-08-17T00:47:52.824Z,99.90
2022-08-17T00:52:57.469Z,99.90
2022-08-17T00:58:03.068Z,99.90
2022-08-17T01:03:11.899Z,99.90
2022-08-17T01:08:16.473Z,99.90
2022-08-17T01:13:18.343Z,99.90
2022-08-17T01:18:20.306Z,99.90
2022-08-17T01:23:24.390Z,99.90
2022-08-17T01:28:52.299Z,99.90
2022-08-17T01:33:53.260Z,99.90
2022-08-17T01:38:55.011Z,99.90
2022-08-17T01:44:01.494Z,99.90
2022-08-17T01:49:07.405Z,99.90
2022-08-17T01:54:13.459Z,99.90
2022-08-17T01:59:16.754Z,99.90
2022-08-17T02:04:18.668Z,99.90
2022-08-17T02:09:27.167Z,99.90
2022-08-17T02:14:31.792Z,99.90
2022-08-17T02:19:33.582Z,99.90
2022-08-17T02:24:59.329Z,99.90
2022-08-17T02:30:00.189Z,99.90
2022-08-17T02:35:02.150Z,99.90
2022-08-17T02:40:05.137Z,99.90
2022-08-17T02:45:13.831Z,99.90
2022-08-17T02:50:17.855Z,99.90
2022-08-17T02:55:23.009Z,99.90
2022-08-17T03:00:33.952Z,99.90
2022-08-17T03:05:38.134Z,99.90
2022-08-17T03:10:39.969Z,99.90
2022-08-17T03:15:45.174Z,99.90
2022-08-17T03:20:47.211Z,99.90
2022-08-17T03:25:48.986Z,99.90
2022-08-17T03:30:55.313Z,99.90
2022-08-17T03:35:57.579Z,99.90
2022-08-17T03:40:59.964Z,99.90
2022-08-17T03:46:28.777Z,99.90
2022-08-17T03:51:55.194Z,99.90
2022-08-17T03:57:16.288Z,99.90
2022-08-17T04:02:23.257Z,99.90
2022-08-17T04:07:28.508Z,99.90
2022-08-17T04:12:49.060Z,99.90
2022-08-17T04:17:52.371Z,99.90
2022-08-17T04:23:06.445Z,99.90
2022-08-17T04:28:09.429Z,99.90
2022-08-17T04:33:23.984Z,99.90
2022-08-17T04:38:32.314Z,99.90
2022-08-17T04:43:35.368Z,99.90
2022-08-17T04:48:40.469Z,99.90
2022-08-17T04:53:45.625Z,99.90
2022-08-17T04:58:59.347Z,99.90
2022-08-17T05:04:33.485Z,99.90
2022-08-17T05:09:26.897Z,99.90
2022-08-17T05:14:32.705Z,99.90
2022-08-17T05:19:35.611Z,99.90
2022-08-17T05:24:43.547Z,99.90
2022-08-17T05:29:55.409Z,99.90
2022-08-17T05:34:59.951Z,99.90
2022-08-17T05:40:01.922Z,99.90
2022-08-17T05:45:05.032Z,99.90
2022-08-17T05:50:09.787Z,99.90
2022-08-17T05:55:28.670Z,99.90
2022-08-17T06:00:59.547Z,99.90
2022-08-17T06:06:09.133Z,99.90
2022-08-17T06:11:32.268Z,99.90
2022-08-17T06:16:44.698Z,99.90
2022-08-17T06:21:48.792Z,99.90
2022-08-17T06:26:52.245Z,99.90
2022-08-17T06:31:54.105Z,99.90
2022-08-17T06:37:15.282Z,99.90
2022-08-17T06:42:59.902Z,99.90
2022-08-17T06:48:12.816Z,99.90
2022-08-17T06:53:26.123Z,99.90
2022-08-17T06:58:31.295Z,99.90
2022-08-17T07:03:49.781Z,99.90
2022-08-17T07:08:59.079Z,99.90
2022-08-17T07:14:21.462Z,99.90
2022-08-17T07:19:31.714Z,99.90
2022-08-17T07:24:47.244Z,99.90
2022-08-17T07:29:54.331Z,99.90
2022-08-17T07:35:08.485Z,99.90
2022-08-17T07:40:26.961Z,99.90
2022-08-17T07:45:48.894Z,99.90
2022-08-17T07:50:53.241Z,99.90
2022-08-17T07:55:55.066Z,99.90
2022-08-17T08:01:10.609Z,99.90
2022-08-17T08:06:26.422Z,99.90
2022-08-17T08:11:34.581Z,99.90
2022-08-17T08:16:36.731Z,99.90
2022-08-17T08:22:02.265Z,99.90
2022-08-17T08:27:27.061Z,99.90
2022-08-17T08:32:37.904Z,99.90
2022-08-17T08:37:43.350Z,99.90
2022-08-17T08:42:56.438Z,99.90
2022-08-17T08:48:05.130Z,99.90
2022-08-17T08:53:23.494Z,99.90
2022-08-17T08:58:42.080Z,99.90
2022-08-17T09:04:25.194Z,99.90
2022-08-17T09:09:45.849Z,99.90
2022-08-17T09:15:15.793Z,99.90
2022-08-17T09:20:28.002Z,99.90
2022-08-17T09:25:34.908Z,99.90
2022-08-17T09:31:08.455Z,99.90
2022-08-17T09:36:33.242Z,99.90
2022-08-17T09:41:51.757Z,99.90
2022-08-17T09:47:12.471Z,99.00
2022-08-17T09:52:27.000Z,99.90
2022-08-17T09:58:09.593Z,98.70
2022-08-17T10:03:24.136Z,98.10
2022-08-17T10:08:53.890Z,97.20
2022-08-17T10:14:36.768Z,96.80
2022-08-17T10:19:43.940Z,95.70
2022-08-17T10:25:22.164Z,93.80
2022-08-17T10:30:30.502Z,92.60
2022-08-17T10:35:50.163Z,94.50
2022-08-17T10:41:19.353Z,94.00
2022-08-17T10:46:39.673Z,93.00
2022-08-17T10:51:41.970Z,92.70
2022-08-17T10:56:46.992Z,95.40
2022-08-17T11:02:00.873Z,95.40
2022-08-17T11:07:29.209Z,95.00
2022-08-17T11:13:02.252Z,95.60
2022-08-17T11:18:29.818Z,94.40
2022-08-17T11:23:59.315Z,90.80
2022-08-17T11:29:06.286Z,89.20
2022-08-17T11:34:23.098Z,93.30
2022-08-17T11:39:43.409Z,91.10
2022-08-17T11:44:59.324Z,89.30
2022-08-17T11:50:45.540Z,86.30
2022-08-17T11:55:53.472Z,86.20
2022-08-17T12:00:58.373Z,82.20
2022-08-17T12:06:06.064Z,81.50
2022-08-17T12:11:15.945Z,83.20
2022-08-17T12:16:20.879Z,80.50
2022-08-17T12:21:54.493Z,78.50
2022-08-17T12:26:59.557Z,77.40
2022-08-17T12:32:02.220Z,75.30
2022-08-17T12:37:14.566Z,75.00
2022-08-17T12:42:26.052Z,73.50
2022-08-17T12:47:29.968Z,71.80
2022-08-17T12:52:37.571Z,68.80
2022-08-17T12:57:43.209Z,68.30
2022-08-17T13:02:47.197Z,69.30
2022-08-17T13:07:50.574Z,63.40
2022-08-17T13:12:53.544Z,65.50
2022-08-17T13:17:58.551Z,64.80
2022-08-17T13:23:03.945Z,63.00
2022-08-17T13:28:33.606Z,61.70
2022-08-17T13:33:43.337Z,60.30
2022-08-17T13:38:49.661Z,58.80
2022-08-17T13:43:51.451Z,58.20
2022-08-17T13:49:06.038Z,58.40
2022-08-17T13:54:26.009Z,58.90
2022-08-17T13:59:53.062Z,59.00
2022-08-17T14:04:57.890Z,67.90
2022-08-17T14:10:10.862Z,69.50
2022-08-17T14:15:15.892Z,67.00
2022-08-17T14:20:20.478Z,63.60
2022-08-17T14:25:25.650Z,62.00
2022-08-17T14:30:28.953Z,64.20
2022-08-17T14:35:32.267Z,63.40
2022-08-17T14:40:35.201Z,65.20
2022-08-17T14:45:37.121Z,66.70
2022-08-17T14:50:41.530Z,65.60
2022-08-17T14:55:45.747Z,63.00
2022-08-17T15:00:50.977Z,59.80
2022-08-17T15:05:53.842Z,64.70
2022-08-17T15:10:55.774Z,63.00
2022-08-17T15:15:59.944Z,61.10
2022-08-17T15:21:04.461Z,57.40
2022-08-17T15:26:07.561Z,57.00
2022-08-17T15:31:09.416Z,58.00
2022-08-17T15:36:11.283Z,57.10
2022-08-17T15:41:17.884Z,59.90
2022-08-17T15:46:22.802Z,60.20
2022-08-17T15:51:33.026Z,58.00
2022-08-17T15:56:35.335Z,56.40
2022-08-17T16:03:06.193Z,65.00
2022-08-17T16:07:00.147Z,60.80
2022-08-17T16:12:10.877Z,60.40
2022-08-17T16:17:38.609Z,59.00
2022-08-17T16:22:45.234Z,64.00
2022-08-17T16:27:49.307Z,62.60
2022-08-17T16:32:53.062Z,66.60
2022-08-17T16:37:57.117Z,65.80
2022-08-17T16:42:59.178Z,71.40
2022-08-17T16:48:01.608Z,72.90
2022-08-17T16:53:10.494Z,75.50
2022-08-17T16:58:12.750Z,73.30
2022-08-17T17:03:18.918Z,77.80
2022-08-17T17:08:30.590Z,78.80
2022-08-17T17:13:43.737Z,79.20
2022-08-17T17:19:12.348Z,79.20
2022-08-17T17:24:37.468Z,81.00
2022-08-17T17:30:05.092Z,81.40
2022-08-17T17:35:23.023Z,78.50
2022-08-17T17:40:42.761Z,83.10
2022-08-17T17:45:50.673Z,85.40
2022-08-17T17:51:02.894Z,84.80
2022-08-17T17:56:07.763Z,86.40
2022-08-17T18:02:00.381Z,86.70
2022-08-17T18:07:24.878Z,88.70
2022-08-17T18:12:45.729Z,90.30
2022-08-17T18:18:06.511Z,90.60
2022-08-17T18:23:08.576Z,91.20
2022-08-17T18:28:30.305Z,90.40
2022-08-17T18:33:32.882Z,90.40
2022-08-17T18:38:42.945Z,90.30
2022-08-17T18:43:57.650Z,90.90
2022-08-17T18:49:27.598Z,91.50
2022-08-17T18:54:29.405Z,91.10
2022-08-17T18:59:43.391Z,91.00
2022-08-17T19:05:02.467Z,91.20
2022-08-17T19:10:10.218Z,92.80
2022-08-17T19:15:21.263Z,93.20
2022-08-17T19:20:49.550Z,93.60
2022-08-17T19:25:58.368Z,93.20
2022-08-17T19:31:09.950Z,93.50
2022-08-17T19:36:26.339Z,93.10
2022-08-17T19:41:46.639Z,93.60
2022-08-17T19:47:53.201Z,93.60
2022-08-17T19:53:30.107Z,94.20
2022-08-17T19:59:12.478Z,94.10
2022-08-17T20:04:42.230Z,94.80
2022-08-17T20:09:53.653Z,95.00
2022-08-17T20:15:13.939Z,94.80
2022-08-17T20:20:43.466Z,94.90
2022-08-17T20:26:44.089Z,94.60
2022-08-17T20:31:59.394Z,94.70
2022-08-17T20:37:13.343Z,94.40
2022-08-17T20:42:23.785Z,94.70
2022-08-17T20:48:00.814Z,94.60
2022-08-17T20:53:11.386Z,94.70
2022-08-17T20:58:31.105Z,94.90
2022-08-17T21:03:51.055Z,95.40
2022-08-17T21:09:30.498Z,96.00
2022-08-17T21:14:59.809Z,96.80
2022-08-17T21:20:17.121Z,97.50
2022-08-17T21:25:40.337Z,97.80
2022-08-17T21:30:48.041Z,98.20
2022-08-17T21:35:50.509Z,98.60
2022-08-17T21:40:53.608Z,99.30
2022-08-17T21:46:00.372Z,99.90
2022-08-17T21:51:19.506Z,99.90
2022-08-17T21:56:45.646Z,99.90
2022-08-17T22:01:55.983Z,99.90
2022-08-17T22:07:00.910Z,99.90
2022-08-17T22:12:13.844Z,99.90
2022-08-17T22:17:18.991Z,99.90
2022-08-17T22:22:34.169Z,99.90
2022-08-17T22:27:57.196Z,99.90
2022-08-17T22:33:09.150Z,99.90
2022-08-17T22:38:19.893Z,99.90
2022-08-17T22:43:28.560Z,99.90
2022-08-17T22:48:31.378Z,99.90
2022-08-17T22:53:53.751Z,99.90
2022-08-17T22:59:19.108Z,99.90
2022-08-17T23:04:39.312Z,99.90
2022-08-17T23:09:42.580Z,99.90
2022-08-17T23:14:49.288Z,99.90
2022-08-17T23:19:51.079Z,99.90
2022-08-17T23:24:57.071Z,99.90
2022-08-17T23:29:59.163Z,99.90
2022-08-17T23:35:04.202Z,99.90
2022-08-17T23:40:09.363Z,99.90
2022-08-17T23:45:13.119Z,99.90
2022-08-17T23:50:16.051Z,99.90
2022-08-17T23:55:18.987Z,99.90
